Terminal Aerodrome Forecast
Issued by NWS Missoula, MT

Home | Current Version | Previous Version | Text Only | Print | Product List | Glossary On
Versions: 1 2 3 4 5 6 7 8 9 10 11 12 13 14 15 16
950
FTUS45 KMSO 241120
TAFBTM
TAF
KBTM 241120Z 2412/2512 12004KT P6SM SKC
     FM241900 19010G18KT P6SM SCT150
     FM242100 19012G25KT P6SM BKN120
     FM250200 21010KT P6SM OVC100
     FM250600 21005KT P6SM -SHRA OVC050=

USA.gov is the U.S. government's official web portal to all federal, state and local government web resources and services.